Bloomingville, Ohio
Current Conditions -  °F | °C
As of 3:33 AM on Saturday 25 Oct 2014 (Local Time) from KPCW Reporting Station
Clear Clear  
Wind Chill: 54°   Ceiling: Unl
Heat Index: 54°   Visibility: 10mi
Dew Point: 48°   Wind: 9mph
Humidity: 82%   Direction: 230°SW
Pressure: 29.93"   Gusts: NA
Location:  41.4028°N, 82.7181°W
Report Text: KPCW 250733Z AUTO 23008KT 10SM CLR 12/09 A2993 RMK AO2 $
Loading
Personal Weather Stations






























Interactive Weather Map
Tropical Storm Tracking
New forecast layout! Learn more

10-Day Weather Forecast

Advertisements
Track Severe Weather on mobile